sensor_id;sensor_type;location;lat;lon;timestamp;temperature;humidity
22996;DHT22;11664;49.774;8.650;2024-02-21T00:01:22;8.70;99.90
22996;DHT22;11664;49.774;8.650;2024-02-21T00:03:48;8.70;99.90
22996;DHT22;11664;49.774;8.650;2024-02-21T00:06:13;8.70;99.90
22996;DHT22;11664;49.774;8.650;2024-02-21T00:08:39;8.70;99.90
22996;DHT22;11664;49.774;8.650;2024-02-21T00:11:04;8.70;99.90
22996;DHT22;11664;49.774;8.650;2024-02-21T00:13:30;8.70;99.90
22996;DHT22;11664;49.774;8.650;2024-02-21T00:15:55;8.70;99.90
22996;DHT22;11664;49.774;8.650;2024-02-21T00:18:21;8.70;99.90
22996;DHT22;11664;49.774;8.650;2024-02-21T00:20:46;8.70;99.90
22996;DHT22;11664;49.774;8.650;2024-02-21T00:23:13;8.70;99.90
22996;DHT22;11664;49.774;8.650;2024-02-21T00:25:39;8.70;99.90
22996;DHT22;11664;49.774;8.650;2024-02-21T00:28:05;8.70;99.90
22996;DHT22;11664;49.774;8.650;2024-02-21T00:30:31;8.70;99.90
22996;DHT22;11664;49.774;8.650;2024-02-21T00:32:56;8.80;99.90
22996;DHT22;11664;49.774;8.650;2024-02-21T00:35:22;8.70;99.90
22996;DHT22;11664;49.774;8.650;2024-02-21T00:37:47;8.70;99.90
22996;DHT22;11664;49.774;8.650;2024-02-21T00:40:13;8.70;99.90
22996;DHT22;11664;49.774;8.650;2024-02-21T00:42:45;8.70;99.90
22996;DHT22;11664;49.774;8.650;2024-02-21T00:45:11;8.70;99.90
22996;DHT22;11664;49.774;8.650;2024-02-21T00:47:37;8.70;99.90
22996;DHT22;11664;49.774;8.650;2024-02-21T00:50:02;8.70;99.90
22996;DHT22;11664;49.774;8.650;2024-02-21T00:52:28;8.70;99.90
22996;DHT22;11664;49.774;8.650;2024-02-21T00:54:53;8.70;99.90
22996;DHT22;11664;49.774;8.650;2024-02-21T00:57:19;8.70;99.90
22996;DHT22;11664;49.774;8.650;2024-02-21T00:59:45;8.70;99.90
22996;DHT22;11664;49.774;8.650;2024-02-21T01:02:10;8.70;99.90
22996;DHT22;11664;49.774;8.650;2024-02-21T01:04:36;8.60;99.90
22996;DHT22;11664;49.774;8.650;2024-02-21T01:07:02;8.60;99.90
22996;DHT22;11664;49.774;8.650;2024-02-21T01:09:27;8.60;99.90
22996;DHT22;11664;49.774;8.650;2024-02-21T01:11:53;8.50;99.90
22996;DHT22;11664;49.774;8.650;2024-02-21T01:14:18;8.50;99.90
22996;DHT22;11664;49.774;8.650;2024-02-21T01:16:44;8.50;99.90
22996;DHT22;11664;49.774;8.650;2024-02-21T01:19:09;8.40;99.90
22996;DHT22;11664;49.774;8.650;2024-02-21T01:21:35;8.50;99.90
22996;DHT22;11664;49.774;8.650;2024-02-21T01:24:00;8.40;99.90
22996;DHT22;11664;49.774;8.650;2024-02-21T01:26:26;8.40;99.90
22996;DHT22;11664;49.774;8.650;2024-02-21T01:28:53;8.40;99.90
22996;DHT22;11664;49.774;8.650;2024-02-21T01:31:18;8.40;99.90
22996;DHT22;11664;49.774;8.650;2024-02-21T01:33:44;8.40;99.90
22996;DHT22;11664;49.774;8.650;2024-02-21T01:36:09;8.30;99.90
22996;DHT22;11664;49.774;8.650;2024-02-21T01:38:35;8.30;99.90
22996;DHT22;11664;49.774;8.650;2024-02-21T01:41:00;8.30;99.90
22996;DHT22;11664;49.774;8.650;2024-02-21T01:43:26;8.40;99.90
22996;DHT22;11664;49.774;8.650;2024-02-21T01:45:53;8.40;99.90
22996;DHT22;11664;49.774;8.650;2024-02-21T01:48:20;8.40;99.90
22996;DHT22;11664;49.774;8.650;2024-02-21T01:50:47;8.50;99.90
22996;DHT22;11664;49.774;8.650;2024-02-21T01:53:16;8.40;99.90
22996;DHT22;11664;49.774;8.650;2024-02-21T01:55:47;8.50;99.90
22996;DHT22;11664;49.774;8.650;2024-02-21T01:58:14;8.40;99.90
22996;DHT22;11664;49.774;8.650;2024-02-21T02:00:42;8.30;99.90
22996;DHT22;11664;49.774;8.650;2024-02-21T02:03:09;8.40;99.90
22996;DHT22;11664;49.774;8.650;2024-02-21T02:05:35;8.40;99.90
22996;DHT22;11664;49.774;8.650;2024-02-21T02:08:01;8.40;99.90
22996;DHT22;11664;49.774;8.650;2024-02-21T02:10:27;8.40;99.90
22996;DHT22;11664;49.774;8.650;2024-02-21T02:12:52;8.40;99.90
22996;DHT22;11664;49.774;8.650;2024-02-21T02:15:18;8.40;99.90
22996;DHT22;11664;49.774;8.650;2024-02-21T02:17:43;8.50;99.90
22996;DHT22;11664;49.774;8.650;2024-02-21T02:20:09;8.40;99.90
22996;DHT22;11664;49.774;8.650;2024-02-21T02:22:36;8.40;99.90
22996;DHT22;11664;49.774;8.650;2024-02-21T02:25:03;8.40;99.90
22996;DHT22;11664;49.774;8.650;2024-02-21T02:27:29;8.40;99.90
22996;DHT22;11664;49.774;8.650;2024-02-21T02:29:54;8.40;99.90
22996;DHT22;11664;49.774;8.650;2024-02-21T02:32:20;8.30;99.90
22996;DHT22;11664;49.774;8.650;2024-02-21T02:34:45;8.30;99.90
22996;DHT22;11664;49.774;8.650;2024-02-21T02:37:11;8.40;99.90
22996;DHT22;11664;49.774;8.650;2024-02-21T02:39:36;8.30;99.90
22996;DHT22;11664;49.774;8.650;2024-02-21T02:42:02;8.30;99.90
22996;DHT22;11664;49.774;8.650;2024-02-21T02:44:28;8.30;99.90
22996;DHT22;11664;49.774;8.650;2024-02-21T02:46:53;8.30;99.90
22996;DHT22;11664;49.774;8.650;2024-02-21T02:49:19;8.20;99.90
22996;DHT22;11664;49.774;8.650;2024-02-21T02:51:44;8.20;99.90
22996;DHT22;11664;49.774;8.650;2024-02-21T02:54:11;8.20;99.90
22996;DHT22;11664;49.774;8.650;2024-02-21T02:56:37;8.10;99.90
22996;DHT22;11664;49.774;8.650;2024-02-21T02:59:03;8.20;99.90
22996;DHT22;11664;49.774;8.650;2024-02-21T03:01:28;8.20;99.90
22996;DHT22;11664;49.774;8.650;2024-02-21T03:03:54;8.20;99.90
22996;DHT22;11664;49.774;8.650;2024-02-21T03:06:19;8.10;99.90
22996;DHT22;11664;49.774;8.650;2024-02-21T03:08:45;8.10;99.90
22996;DHT22;11664;49.774;8.650;2024-02-21T03:11:11;8.20;99.90
22996;DHT22;11664;49.774;8.650;2024-02-21T03:13:36;8.20;99.90
22996;DHT22;11664;49.774;8.650;2024-02-21T03:16:02;8.20;99.90
22996;DHT22;11664;49.774;8.650;2024-02-21T03:18:28;8.10;99.90
22996;DHT22;11664;49.774;8.650;2024-02-21T03:20:53;8.10;99.90
22996;DHT22;11664;49.774;8.650;2024-02-21T03:23:19;8.10;99.90
22996;DHT22;11664;49.774;8.650;2024-02-21T03:25:45;8.10;99.90
22996;DHT22;11664;49.774;8.650;2024-02-21T03:28:10;8.10;99.90
22996;DHT22;11664;49.774;8.650;2024-02-21T03:30:36;8.10;99.90
22996;DHT22;11664;49.774;8.650;2024-02-21T03:33:02;8.20;99.90
22996;DHT22;11664;49.774;8.650;2024-02-21T03:35:27;8.10;99.90
22996;DHT22;11664;49.774;8.650;2024-02-21T03:37:53;8.20;99.90
22996;DHT22;11664;49.774;8.650;2024-02-21T03:40:19;8.20;99.90
22996;DHT22;11664;49.774;8.650;2024-02-21T03:42:44;8.20;99.90
22996;DHT22;11664;49.774;8.650;2024-02-21T03:45:10;8.30;99.90
22996;DHT22;11664;49.774;8.650;2024-02-21T03:47:35;8.30;99.90
22996;DHT22;11664;49.774;8.650;2024-02-21T03:50:01;8.30;99.90
22996;DHT22;11664;49.774;8.650;2024-02-21T03:52:26;8.30;99.90
22996;DHT22;11664;49.774;8.650;2024-02-21T03:54:52;8.20;99.90
22996;DHT22;11664;49.774;8.650;2024-02-21T03:57:17;8.30;99.90
22996;DHT22;11664;49.774;8.650;2024-02-21T03:59:43;8.20;99.90
22996;DHT22;11664;49.774;8.650;2024-02-21T04:02:08;8.30;99.90
22996;DHT22;11664;49.774;8.650;2024-02-21T04:04:35;8.30;99.90
22996;DHT22;11664;49.774;8.650;2024-02-21T04:07:03;8.30;99.90
22996;DHT22;11664;49.774;8.650;2024-02-21T04:09:32;8.30;99.90
22996;DHT22;11664;49.774;8.650;2024-02-21T04:11:59;8.20;99.90
22996;DHT22;11664;49.774;8.650;2024-02-21T04:14:24;8.20;99.90
22996;DHT22;11664;49.774;8.650;2024-02-21T04:16:50;8.20;99.90
22996;DHT22;11664;49.774;8.650;2024-02-21T04:19:15;8.20;99.90
22996;DHT22;11664;49.774;8.650;2024-02-21T04:21:41;8.30;99.90
22996;DHT22;11664;49.774;8.650;2024-02-21T04:24:06;8.30;99.90
22996;DHT22;11664;49.774;8.650;2024-02-21T04:26:32;8.30;99.90
22996;DHT22;11664;49.774;8.650;2024-02-21T04:28:57;8.30;99.90
22996;DHT22;11664;49.774;8.650;2024-02-21T04:31:23;8.30;99.90
22996;DHT22;11664;49.774;8.650;2024-02-21T04:33:49;8.30;99.90
22996;DHT22;11664;49.774;8.650;2024-02-21T04:36:14;8.30;99.90
22996;DHT22;11664;49.774;8.650;2024-02-21T04:38:40;8.30;99.90
22996;DHT22;11664;49.774;8.650;2024-02-21T04:41:06;8.30;99.90
22996;DHT22;11664;49.774;8.650;2024-02-21T04:43:31;8.30;99.90
22996;DHT22;11664;49.774;8.650;2024-02-21T04:45:57;8.30;99.90
22996;DHT22;11664;49.774;8.650;2024-02-21T04:48:22;8.30;99.90
22996;DHT22;11664;49.774;8.650;2024-02-21T04:50:48;8.40;99.90
22996;DHT22;11664;49.774;8.650;2024-02-21T04:53:13;8.30;99.90
22996;DHT22;11664;49.774;8.650;2024-02-21T04:55:39;8.30;99.90
22996;DHT22;11664;49.774;8.650;2024-02-21T04:58:05;8.30;99.90
22996;DHT22;11664;49.774;8.650;2024-02-21T05:00:31;8.30;99.90
22996;DHT22;11664;49.774;8.650;2024-02-21T05:02:56;8.30;99.90
22996;DHT22;11664;49.774;8.650;2024-02-21T05:05:22;8.30;99.90
22996;DHT22;11664;49.774;8.650;2024-02-21T05:07:47;8.30;99.90
22996;DHT22;11664;49.774;8.650;2024-02-21T05:10:13;8.30;99.90
22996;DHT22;11664;49.774;8.650;2024-02-21T05:12:38;8.30;99.90
22996;DHT22;11664;49.774;8.650;2024-02-21T05:15:04;8.20;99.90
22996;DHT22;11664;49.774;8.650;2024-02-21T05:17:30;8.20;99.90
22996;DHT22;11664;49.774;8.650;2024-02-21T05:19:55;8.30;99.90
22996;DHT22;11664;49.774;8.650;2024-02-21T05:22:21;8.20;99.90
22996;DHT22;11664;49.774;8.650;2024-02-21T05:24:46;8.20;99.90
22996;DHT22;11664;49.774;8.650;2024-02-21T05:27:12;8.20;99.90
22996;DHT22;11664;49.774;8.650;2024-02-21T05:29:37;8.20;99.90
22996;DHT22;11664;49.774;8.650;2024-02-21T05:32:03;8.20;99.90
22996;DHT22;11664;49.774;8.650;2024-02-21T05:34:29;8.20;99.90
22996;DHT22;11664;49.774;8.650;2024-02-21T05:36:54;8.20;99.90
22996;DHT22;11664;49.774;8.650;2024-02-21T05:39:20;8.20;99.90
22996;DHT22;11664;49.774;8.650;2024-02-21T05:41:48;8.20;99.90
22996;DHT22;11664;49.774;8.650;2024-02-21T05:44:14;8.10;99.90
22996;DHT22;11664;49.774;8.650;2024-02-21T05:46:39;8.10;99.90
22996;DHT22;11664;49.774;8.650;2024-02-21T05:49:05;8.10;99.90
22996;DHT22;11664;49.774;8.650;2024-02-21T05:51:35;8.00;99.90
22996;DHT22;11664;49.774;8.650;2024-02-21T05:54:01;8.00;99.90
22996;DHT22;11664;49.774;8.650;2024-02-21T05:56:26;7.90;99.90
22996;DHT22;11664;49.774;8.650;2024-02-21T05:58:52;7.80;99.90
22996;DHT22;11664;49.774;8.650;2024-02-21T06:01:18;7.80;99.90
22996;DHT22;11664;49.774;8.650;2024-02-21T06:03:44;7.70;99.90
22996;DHT22;11664;49.774;8.650;2024-02-21T06:06:09;7.70;99.90
22996;DHT22;11664;49.774;8.650;2024-02-21T06:08:35;7.80;99.90
22996;DHT22;11664;49.774;8.650;2024-02-21T06:11:00;7.80;99.90
22996;DHT22;11664;49.774;8.650;2024-02-21T06:13:26;7.80;99.90
22996;DHT22;11664;49.774;8.650;2024-02-21T06:15:52;7.80;99.90
22996;DHT22;11664;49.774;8.650;2024-02-21T06:18:18;7.70;99.90
22996;DHT22;11664;49.774;8.650;2024-02-21T06:20:44;7.70;99.90
22996;DHT22;11664;49.774;8.650;2024-02-21T06:23:10;7.70;99.90
22996;DHT22;11664;49.774;8.650;2024-02-21T06:25:36;7.80;99.90
22996;DHT22;11664;49.774;8.650;2024-02-21T06:28:02;7.80;99.90
22996;DHT22;11664;49.774;8.650;2024-02-21T06:30:27;7.80;99.90
22996;DHT22;11664;49.774;8.650;2024-02-21T06:32:53;7.80;99.90
22996;DHT22;11664;49.774;8.650;2024-02-21T06:35:21;7.80;99.90
22996;DHT22;11664;49.774;8.650;2024-02-21T06:37:47;7.70;99.90
22996;DHT22;11664;49.774;8.650;2024-02-21T06:40:16;7.70;99.90
22996;DHT22;11664;49.774;8.650;2024-02-21T06:42:42;7.60;99.90
22996;DHT22;11664;49.774;8.650;2024-02-21T06:45:07;7.60;99.90
22996;DHT22;11664;49.774;8.650;2024-02-21T06:47:33;7.50;99.90
22996;DHT22;11664;49.774;8.650;2024-02-21T06:49:58;7.60;99.90
22996;DHT22;11664;49.774;8.650;2024-02-21T06:52:24;7.50;99.90
22996;DHT22;11664;49.774;8.650;2024-02-21T06:54:50;7.50;99.90
22996;DHT22;11664;49.774;8.650;2024-02-21T06:57:16;7.50;99.90
22996;DHT22;11664;49.774;8.650;2024-02-21T06:59:42;7.50;99.90
22996;DHT22;11664;49.774;8.650;2024-02-21T07:02:08;7.50;99.90
22996;DHT22;11664;49.774;8.650;2024-02-21T07:04:34;7.50;99.90
22996;DHT22;11664;49.774;8.650;2024-02-21T07:07:00;7.40;99.90
22996;DHT22;11664;49.774;8.650;2024-02-21T07:09:25;7.50;99.90
22996;DHT22;11664;49.774;8.650;2024-02-21T07:11:51;7.50;99.90
22996;DHT22;11664;49.774;8.650;2024-02-21T07:14:18;7.50;99.90
22996;DHT22;11664;49.774;8.650;2024-02-21T07:16:43;7.60;99.90
22996;DHT22;11664;49.774;8.650;2024-02-21T07:19:09;7.60;99.90
22996;DHT22;11664;49.774;8.650;2024-02-21T07:21:35;7.60;99.90
22996;DHT22;11664;49.774;8.650;2024-02-21T07:24:03;7.50;99.90
22996;DHT22;11664;49.774;8.650;2024-02-21T07:26:29;7.50;99.90
22996;DHT22;11664;49.774;8.650;2024-02-21T07:28:54;7.60;99.90
22996;DHT22;11664;49.774;8.650;2024-02-21T07:31:20;7.60;99.90
22996;DHT22;11664;49.774;8.650;2024-02-21T07:33:45;7.70;99.90
22996;DHT22;11664;49.774;8.650;2024-02-21T07:36:11;7.80;99.90
22996;DHT22;11664;49.774;8.650;2024-02-21T07:38:37;7.80;99.90
22996;DHT22;11664;49.774;8.650;2024-02-21T07:41:02;7.80;99.90
22996;DHT22;11664;49.774;8.650;2024-02-21T07:43:29;7.90;99.90
22996;DHT22;11664;49.774;8.650;2024-02-21T07:45:55;7.90;99.90
22996;DHT22;11664;49.774;8.650;2024-02-21T07:48:21;8.00;99.90
22996;DHT22;11664;49.774;8.650;2024-02-21T07:50:50;8.00;99.90
22996;DHT22;11664;49.774;8.650;2024-02-21T07:53:20;8.10;99.90
22996;DHT22;11664;49.774;8.650;2024-02-21T07:55:46;8.20;99.90
22996;DHT22;11664;49.774;8.650;2024-02-21T07:58:11;8.20;99.90
22996;DHT22;11664;49.774;8.650;2024-02-21T08:00:37;8.20;99.90
22996;DHT22;11664;49.774;8.650;2024-02-21T08:03:03;8.20;99.90
22996;DHT22;11664;49.774;8.650;2024-02-21T08:05:28;8.20;99.90
22996;DHT22;11664;49.774;8.650;2024-02-21T08:07:55;8.20;99.90
22996;DHT22;11664;49.774;8.650;2024-02-21T08:10:21;8.30;99.90
22996;DHT22;11664;49.774;8.650;2024-02-21T08:12:46;8.30;99.90
22996;DHT22;11664;49.774;8.650;2024-02-21T08:15:12;8.30;99.90
22996;DHT22;11664;49.774;8.650;2024-02-21T08:17:38;8.30;99.90
22996;DHT22;11664;49.774;8.650;2024-02-21T08:20:06;8.40;99.90
22996;DHT22;11664;49.774;8.650;2024-02-21T08:22:32;8.40;99.90
22996;DHT22;11664;49.774;8.650;2024-02-21T08:24:58;8.40;99.90
22996;DHT22;11664;49.774;8.650;2024-02-21T08:27:23;8.50;99.90
22996;DHT22;11664;49.774;8.650;2024-02-21T08:29:49;8.50;99.90
22996;DHT22;11664;49.774;8.650;2024-02-21T08:32:14;8.50;99.90
22996;DHT22;11664;49.774;8.650;2024-02-21T08:34:40;8.60;99.90
22996;DHT22;11664;49.774;8.650;2024-02-21T08:37:05;8.60;99.90
22996;DHT22;11664;49.774;8.650;2024-02-21T08:39:31;8.60;99.90
22996;DHT22;11664;49.774;8.650;2024-02-21T08:41:56;8.70;99.90
22996;DHT22;11664;49.774;8.650;2024-02-21T08:44:23;8.70;99.90
22996;DHT22;11664;49.774;8.650;2024-02-21T08:46:52;8.60;99.90
22996;DHT22;11664;49.774;8.650;2024-02-21T08:49:17;8.60;99.90
22996;DHT22;11664;49.774;8.650;2024-02-21T08:51:43;8.50;99.90
22996;DHT22;11664;49.774;8.650;2024-02-21T08:54:09;8.60;99.90
22996;DHT22;11664;49.774;8.650;2024-02-21T08:56:34;8.60;99.90
22996;DHT22;11664;49.774;8.650;2024-02-21T08:59:01;8.60;99.90
22996;DHT22;11664;49.774;8.650;2024-02-21T09:01:27;8.60;99.90
22996;DHT22;11664;49.774;8.650;2024-02-21T09:03:52;8.60;99.90
22996;DHT22;11664;49.774;8.650;2024-02-21T09:06:19;8.60;99.90
22996;DHT22;11664;49.774;8.650;2024-02-21T09:08:45;8.60;99.90
22996;DHT22;11664;49.774;8.650;2024-02-21T09:11:11;8.70;99.90
22996;DHT22;11664;49.774;8.650;2024-02-21T09:13:36;8.70;99.90
22996;DHT22;11664;49.774;8.650;2024-02-21T09:16:02;8.70;99.90
22996;DHT22;11664;49.774;8.650;2024-02-21T09:18:28;8.90;99.90
22996;DHT22;11664;49.774;8.650;2024-02-21T09:20:54;8.90;99.90
22996;DHT22;11664;49.774;8.650;2024-02-21T09:23:19;9.10;99.90
22996;DHT22;11664;49.774;8.650;2024-02-21T09:25:45;9.20;99.90
22996;DHT22;11664;49.774;8.650;2024-02-21T09:28:11;9.20;99.90
22996;DHT22;11664;49.774;8.650;2024-02-21T09:30:38;9.30;99.90
22996;DHT22;11664;49.774;8.650;2024-02-21T09:33:03;9.30;99.90
22996;DHT22;11664;49.774;8.650;2024-02-21T09:35:30;9.30;99.90
22996;DHT22;11664;49.774;8.650;2024-02-21T09:37:56;9.30;99.90
22996;DHT22;11664;49.774;8.650;2024-02-21T09:40:21;9.60;99.90
22996;DHT22;11664;49.774;8.650;2024-02-21T09:42:47;9.80;99.90
22996;DHT22;11664;49.774;8.650;2024-02-21T09:50:40;9.70;99.90
22996;DHT22;11664;49.774;8.650;2024-02-21T09:53:06;9.60;99.90
22996;DHT22;11664;49.774;8.650;2024-02-21T09:55:33;9.70;99.90
22996;DHT22;11664;49.774;8.650;2024-02-21T09:58:01;9.90;99.90
22996;DHT22;11664;49.774;8.650;2024-02-21T10:00:27;10.00;99.90
22996;DHT22;11664;49.774;8.650;2024-02-21T10:02:53;10.10;99.90
22996;DHT22;11664;49.774;8.650;2024-02-21T10:05:19;10.00;99.90
22996;DHT22;11664;49.774;8.650;2024-02-21T10:07:45;10.20;99.90
22996;DHT22;11664;49.774;8.650;2024-02-21T10:10:11;10.30;99.90
22996;DHT22;11664;49.774;8.650;2024-02-21T10:12:36;10.40;99.90
22996;DHT22;11664;49.774;8.650;2024-02-21T10:15:12;10.30;99.90
22996;DHT22;11664;49.774;8.650;2024-02-21T10:17:38;10.40;99.90
22996;DHT22;11664;49.774;8.650;2024-02-21T10:20:08;10.50;99.90
22996;DHT22;11664;49.774;8.650;2024-02-21T10:22:34;10.60;99.90
22996;DHT22;11664;49.774;8.650;2024-02-21T10:25:12;10.70;99.90
22996;DHT22;11664;49.774;8.650;2024-02-21T10:27:38;10.80;99.90
22996;DHT22;11664;49.774;8.650;2024-02-21T10:30:06;10.50;99.90
22996;DHT22;11664;49.774;8.650;2024-02-21T10:32:32;10.60;99.90
22996;DHT22;11664;49.774;8.650;2024-02-21T10:35:02;10.70;99.90
22996;DHT22;11664;49.774;8.650;2024-02-21T10:37:30;10.70;99.90
22996;DHT22;11664;49.774;8.650;2024-02-21T10:39:56;10.50;99.90
22996;DHT22;11664;49.774;8.650;2024-02-21T10:42:22;10.50;99.90
22996;DHT22;11664;49.774;8.650;2024-02-21T10:44:50;10.70;99.90
22996;DHT22;11664;49.774;8.650;2024-02-21T10:47:17;10.50;99.90
22996;DHT22;11664;49.774;8.650;2024-02-21T10:49:49;10.60;99.90
22996;DHT22;11664;49.774;8.650;2024-02-21T10:52:32;10.60;99.90
22996;DHT22;11664;49.774;8.650;2024-02-21T10:55:11;10.60;99.90
22996;DHT22;11664;49.774;8.650;2024-02-21T10:57:38;10.50;99.90
22996;DHT22;11664;49.774;8.650;2024-02-21T11:00:05;10.60;99.90
22996;DHT22;11664;49.774;8.650;2024-02-21T11:02:34;10.80;99.90
22996;DHT22;11664;49.774;8.650;2024-02-21T11:05:01;10.90;99.90
22996;DHT22;11664;49.774;8.650;2024-02-21T11:07:29;10.60;99.90
22996;DHT22;11664;49.774;8.650;2024-02-21T11:09:55;10.80;99.90
22996;DHT22;11664;49.774;8.650;2024-02-21T11:12:21;10.80;99.90
22996;DHT22;11664;49.774;8.650;2024-02-21T11:14:47;10.80;99.90
22996;DHT22;11664;49.774;8.650;2024-02-21T11:17:17;11.10;99.90
22996;DHT22;11664;49.774;8.650;2024-02-21T11:19:43;11.00;99.90
22996;DHT22;11664;49.774;8.650;2024-02-21T11:22:15;11.10;99.90
22996;DHT22;11664;49.774;8.650;2024-02-21T11:24:42;11.20;99.90
22996;DHT22;11664;49.774;8.650;2024-02-21T11:27:15;11.30;99.90
22996;DHT22;11664;49.774;8.650;2024-02-21T11:29:48;11.40;99.90
22996;DHT22;11664;49.774;8.650;2024-02-21T11:32:17;11.40;99.90
22996;DHT22;11664;49.774;8.650;2024-02-21T11:34:55;11.60;99.90
22996;DHT22;11664;49.774;8.650;2024-02-21T11:37:20;11.50;99.90
22996;DHT22;11664;49.774;8.650;2024-02-21T11:39:46;11.30;99.90
22996;DHT22;11664;49.774;8.650;2024-02-21T11:42:12;11.40;99.90
22996;DHT22;11664;49.774;8.650;2024-02-21T11:44:38;11.30;99.90
22996;DHT22;11664;49.774;8.650;2024-02-21T11:47:05;11.20;99.90
22996;DHT22;11664;49.774;8.650;2024-02-21T11:49:37;11.30;99.90
22996;DHT22;11664;49.774;8.650;2024-02-21T11:52:03;11.40;99.90
22996;DHT22;11664;49.774;8.650;2024-02-21T11:54:30;11.40;99.90
22996;DHT22;11664;49.774;8.650;2024-02-21T11:56:56;11.10;99.90
22996;DHT22;11664;49.774;8.650;2024-02-21T11:59:21;11.20;99.90
22996;DHT22;11664;49.774;8.650;2024-02-21T12:01:48;11.20;99.90
22996;DHT22;11664;49.774;8.650;2024-02-21T12:04:14;11.20;99.90
22996;DHT22;11664;49.774;8.650;2024-02-21T12:06:43;11.30;99.90
22996;DHT22;11664;49.774;8.650;2024-02-21T12:09:08;11.40;99.90
22996;DHT22;11664;49.774;8.650;2024-02-21T12:11:34;11.60;99.90
22996;DHT22;11664;49.774;8.650;2024-02-21T12:14:03;11.70;99.90
22996;DHT22;11664;49.774;8.650;2024-02-21T12:16:33;11.60;99.90
22996;DHT22;11664;49.774;8.650;2024-02-21T12:19:00;11.40;99.90
22996;DHT22;11664;49.774;8.650;2024-02-21T12:21:35;11.40;99.90
22996;DHT22;11664;49.774;8.650;2024-02-21T12:24:20;11.40;99.90
22996;DHT22;11664;49.774;8.650;2024-02-21T12:26:46;11.50;99.90
22996;DHT22;11664;49.774;8.650;2024-02-21T12:29:12;11.50;99.90
22996;DHT22;11664;49.774;8.650;2024-02-21T12:31:38;11.60;99.90
22996;DHT22;11664;49.774;8.650;2024-02-21T12:34:04;11.80;99.90
22996;DHT22;11664;49.774;8.650;2024-02-21T12:36:35;11.90;99.90
22996;DHT22;11664;49.774;8.650;2024-02-21T12:39:01;12.00;99.90
22996;DHT22;11664;49.774;8.650;2024-02-21T12:41:28;12.20;99.90
22996;DHT22;11664;49.774;8.650;2024-02-21T12:43:55;12.20;99.90
22996;DHT22;11664;49.774;8.650;2024-02-21T12:46:22;12.00;99.90
22996;DHT22;11664;49.774;8.650;2024-02-21T12:48:47;11.90;99.90
22996;DHT22;11664;49.774;8.650;2024-02-21T12:51:13;11.80;99.90
22996;DHT22;11664;49.774;8.650;2024-02-21T12:53:39;11.70;99.90
22996;DHT22;11664;49.774;8.650;2024-02-21T12:56:05;11.70;99.90
22996;DHT22;11664;49.774;8.650;2024-02-21T12:58:32;11.70;99.90
22996;DHT22;11664;49.774;8.650;2024-02-21T13:00:58;11.70;99.90
22996;DHT22;11664;49.774;8.650;2024-02-21T13:03:24;11.50;99.90
22996;DHT22;11664;49.774;8.650;2024-02-21T13:05:49;11.50;99.90
22996;DHT22;11664;49.774;8.650;2024-02-21T13:08:15;11.50;99.90
22996;DHT22;11664;49.774;8.650;2024-02-21T13:10:40;11.50;99.90
22996;DHT22;11664;49.774;8.650;2024-02-21T13:13:06;11.60;99.90
22996;DHT22;11664;49.774;8.650;2024-02-21T13:15:31;11.50;99.90
22996;DHT22;11664;49.774;8.650;2024-02-21T13:17:57;11.30;99.90
22996;DHT22;11664;49.774;8.650;2024-02-21T13:20:24;11.40;99.90
22996;DHT22;11664;49.774;8.650;2024-02-21T13:22:50;11.50;99.90
22996;DHT22;11664;49.774;8.650;2024-02-21T13:25:16;11.60;99.90
22996;DHT22;11664;49.774;8.650;2024-02-21T13:27:44;11.60;99.90
22996;DHT22;11664;49.774;8.650;2024-02-21T13:30:10;11.60;99.90
22996;DHT22;11664;49.774;8.650;2024-02-21T13:32:36;11.50;99.90
22996;DHT22;11664;49.774;8.650;2024-02-21T13:35:02;11.50;99.90
22996;DHT22;11664;49.774;8.650;2024-02-21T13:37:28;11.60;99.90
22996;DHT22;11664;49.774;8.650;2024-02-21T13:39:54;11.70;99.90
22996;DHT22;11664;49.774;8.650;2024-02-21T13:42:20;11.60;99.90
22996;DHT22;11664;49.774;8.650;2024-02-21T13:44:46;11.60;99.90
22996;DHT22;11664;49.774;8.650;2024-02-21T13:47:14;11.60;99.90
22996;DHT22;11664;49.774;8.650;2024-02-21T13:49:40;11.80;99.90
22996;DHT22;11664;49.774;8.650;2024-02-21T13:52:05;11.90;99.90
22996;DHT22;11664;49.774;8.650;2024-02-21T13:54:31;11.90;99.90
22996;DHT22;11664;49.774;8.650;2024-02-21T13:56:57;11.90;99.90
22996;DHT22;11664;49.774;8.650;2024-02-21T13:59:23;12.00;99.90
22996;DHT22;11664;49.774;8.650;2024-02-21T14:01:48;11.90;99.90
22996;DHT22;11664;49.774;8.650;2024-02-21T14:04:13;11.90;99.90
22996;DHT22;11664;49.774;8.650;2024-02-21T14:06:39;11.80;99.90
22996;DHT22;11664;49.774;8.650;2024-02-21T14:09:09;11.80;99.90
22996;DHT22;11664;49.774;8.650;2024-02-21T14:11:35;11.80;99.90
22996;DHT22;11664;49.774;8.650;2024-02-21T14:14:01;11.80;99.90
22996;DHT22;11664;49.774;8.650;2024-02-21T14:16:26;11.70;99.90
22996;DHT22;11664;49.774;8.650;2024-02-21T14:18:52;11.80;99.90
22996;DHT22;11664;49.774;8.650;2024-02-21T14:21:19;11.70;99.90
22996;DHT22;11664;49.774;8.650;2024-02-21T14:23:45;11.70;99.90
22996;DHT22;11664;49.774;8.650;2024-02-21T14:26:10;11.60;99.90
22996;DHT22;11664;49.774;8.650;2024-02-21T14:28:37;11.50;99.90
22996;DHT22;11664;49.774;8.650;2024-02-21T14:31:03;11.50;99.90
22996;DHT22;11664;49.774;8.650;2024-02-21T14:33:31;11.40;99.90
22996;DHT22;11664;49.774;8.650;2024-02-21T14:35:57;11.40;99.90
22996;DHT22;11664;49.774;8.650;2024-02-21T14:38:22;11.40;99.90
22996;DHT22;11664;49.774;8.650;2024-02-21T14:40:48;11.40;99.90
22996;DHT22;11664;49.774;8.650;2024-02-21T14:43:14;11.30;99.90
22996;DHT22;11664;49.774;8.650;2024-02-21T14:45:39;11.30;99.90
22996;DHT22;11664;49.774;8.650;2024-02-21T14:48:06;11.30;99.90
22996;DHT22;11664;49.774;8.650;2024-02-21T14:50:31;11.40;99.90
22996;DHT22;11664;49.774;8.650;2024-02-21T14:52:57;11.50;99.90
22996;DHT22;11664;49.774;8.650;2024-02-21T14:55:23;11.60;99.90
22996;DHT22;11664;49.774;8.650;2024-02-21T14:57:49;11.70;99.90
22996;DHT22;11664;49.774;8.650;2024-02-21T15:00:15;11.70;99.90
22996;DHT22;11664;49.774;8.650;2024-02-21T15:02:41;11.50;99.90
22996;DHT22;11664;49.774;8.650;2024-02-21T15:05:07;11.50;99.90
22996;DHT22;11664;49.774;8.650;2024-02-21T15:07:33;11.50;99.90
22996;DHT22;11664;49.774;8.650;2024-02-21T15:09:58;11.40;99.90
22996;DHT22;11664;49.774;8.650;2024-02-21T15:12:24;11.40;99.90
22996;DHT22;11664;49.774;8.650;2024-02-21T15:14:50;11.30;99.90
22996;DHT22;11664;49.774;8.650;2024-02-21T15:17:17;11.20;99.90
22996;DHT22;11664;49.774;8.650;2024-02-21T15:19:43;11.20;99.90
22996;DHT22;11664;49.774;8.650;2024-02-21T15:22:12;11.10;99.90
22996;DHT22;11664;49.774;8.650;2024-02-21T15:24:39;11.10;99.90
22996;DHT22;11664;49.774;8.650;2024-02-21T15:27:05;11.10;99.90
22996;DHT22;11664;49.774;8.650;2024-02-21T15:29:31;11.00;99.90
22996;DHT22;11664;49.774;8.650;2024-02-21T15:31:56;11.00;99.90
22996;DHT22;11664;49.774;8.650;2024-02-21T15:34:22;11.00;99.90
22996;DHT22;11664;49.774;8.650;2024-02-21T15:36:47;10.90;99.90
22996;DHT22;11664;49.774;8.650;2024-02-21T15:39:13;10.90;99.90